Terminal Aerodrome Forecast
Issued by NWS

Home | Current Version | Previous Version | Text Only | Print | Product List | Glossary On
Versions: 1 2 3 4 5 6 7 8 9 10 11 12 13 14 15 16 17
476
FTUS45 KRIW 290533
TAFRKS
TAF
KRKS 290533Z 2906/3006 06016G26KT P6SM VCSH OVC016
     FM291800 05017KT P6SM SCT016 BKN035
     FM292300 07016KT P6SM VCSH SCT025 BKN040
     FM300300 08014KT P6SM SCT030 BKN050=

USA.gov is the U.S. government's official web portal to all federal, state and local government web resources and services.